Time;durP1;ratioP1;P1;durP2;ratioP2;P2;SDS_P1;SDS_P2;PMS_P1;PMS_P2;Temp;Humidity;BMP_temperature;BMP_pressure;BME280_temperature;BME280_humidity;BME280_pressure;Samples;Min_cycle;Max_cycle;Signal;HPM_P1;HPM_P2
2022/12/21 00:01:12;;;;;;;139.15;65.92;;;;;;;-1.41;100.00;98244.05;1746072;81;21068;-81
2022/12/21 00:03:40;;;;;;;136.50;64.87;;;;;;;-1.45;100.00;98251.60;1768465;81;21683;-80
2022/12/21 00:06:07;;;;;;;159.25;75.75;;;;;;;-1.45;100.00;98246.80;1769159;81;21016;-79
2022/12/21 00:08:44;;;;;;;168.43;77.65;;;;;;;-1.47;100.00;98244.31;1768583;81;21579;-78
2022/12/21 00:11:12;;;;;;;182.43;84.92;;;;;;;-1.50;100.00;98243.90;1768402;81;21029;-81
2022/12/21 00:13:39;;;;;;;157.75;76.60;;;;;;;-1.54;100.00;98239.98;1768206;81;21051;-78
2022/12/21 00:16:09;;;;;;;154.00;74.40;;;;;;;-1.71;100.00;98241.66;1732350;82;21023;-78
2022/12/21 00:18:37;;;;;;;155.50;76.02;;;;;;;-1.76;100.00;98237.42;1750989;81;21065;-80
2022/12/21 00:21:10;;;;;;;142.62;68.87;;;;;;;-1.75;100.00;98234.26;1732429;82;21074;-78
2022/12/21 00:23:37;;;;;;;152.97;76.65;;;;;;;-1.81;100.00;98221.23;1751017;81;21021;-78
2022/12/21 00:26:05;;;;;;;178.97;85.15;;;;;;;-1.78;100.00;98213.41;1732371;82;21007;-78
2022/12/21 00:28:32;;;;;;;183.25;91.75;;;;;;;-1.75;100.00;98209.02;1751067;81;21108;-80
2022/12/21 00:31:11;;;;;;;169.02;89.10;;;;;;;-1.67;100.00;98212.02;1732333;82;20995;-81
2022/12/21 00:33:39;;;;;;;175.80;90.32;;;;;;;-1.54;100.00;98203.62;1756005;81;21509;-81
2022/12/21 00:36:08;;;;;;;187.30;96.15;;;;;;;-1.40;100.00;98203.66;1746045;82;21018;-77
2022/12/21 00:38:35;;;;;;;203.58;108.87;;;;;;;-1.34;100.00;98220.16;1768851;81;21099;-80
2022/12/21 00:41:04;;;;;;;216.10;110.80;;;;;;;-1.29;100.00;98228.33;1768751;81;21689;-81
2022/12/21 00:43:33;;;;;;;212.17;108.20;;;;;;;-1.25;100.00;98217.63;1768558;81;20988;-78
2022/12/21 00:46:00;;;;;;;220.48;101.97;;;;;;;-1.22;100.00;98201.27;1746206;82;21008;-79
2022/12/21 00:48:27;;;;;;;199.50;105.97;;;;;;;-1.24;100.00;98184.19;1768512;81;21004;-78
2022/12/21 00:50:54;;;;;;;197.22;105.22;;;;;;;-1.31;100.00;98187.84;1745819;82;21013;-81
2022/12/21 00:53:21;;;;;;;172.53;84.35;;;;;;;-1.23;100.00;98188.98;1765161;81;21049;-80
2022/12/21 00:55:59;;;;;;;188.60;102.02;;;;;;;-1.11;100.00;98190.06;1730669;82;21512;-78
2022/12/21 00:58:24;;;;;;;201.85;102.20;;;;;;;-1.07;100.00;98201.11;1750340;81;21053;-78
2022/12/21 01:00:53;;;;;;;198.53;101.18;;;;;;;-1.02;100.00;98206.14;1730773;82;21026;-79
2022/12/21 01:03:19;;;;;;;209.93;110.03;;;;;;;-0.99;100.00;98210.23;1751280;81;21005;-78
2022/12/21 01:05:50;;;;;;;186.50;92.27;;;;;;;-0.94;100.00;98210.44;1730761;82;21634;-78
2022/12/21 01:08:18;;;;;;;184.90;97.65;;;;;;;-0.87;100.00;98206.77;1750955;81;20983;-80
2022/12/21 01:10:45;;;;;;;189.90;95.38;;;;;;;-0.88;100.00;98208.30;1745409;82;21006;-78
2022/12/21 01:13:14;;;;;;;195.12;100.07;;;;;;;-0.84;100.00;98210.07;1772814;80;21024;-78
2022/12/21 01:15:43;;;;;;;;;;;;;;;-0.78;100.00;98210.05;1745638;80;21503;-80
2022/12/21 01:18:10;;;;;;;185.80;85.90;;;;;;;-0.79;100.00;98205.77;1738189;82;21197;-78
2022/12/21 01:20:47;;;;;;;175.15;85.07;;;;;;;-0.88;100.00;98197.66;1739002;82;21063;-78
2022/12/21 01:23:15;;;;;;;163.20;85.62;;;;;;;-0.96;100.00;98181.38;1738886;82;21031;-81
2022/12/21 01:25:43;;;;;;;170.80;87.53;;;;;;;-1.01;100.00;98179.03;1738994;82;21071;-81
2022/12/21 01:28:10;;;;;;;175.05;92.10;;;;;;;-0.98;100.00;98168.80;1739029;82;21039;-78
2022/12/21 01:30:38;;;;;;;179.82;91.32;;;;;;;-0.93;100.00;98150.40;1739026;82;21067;-81
2022/12/21 01:33:06;;;;;;;193.63;93.97;;;;;;;-0.94;100.00;98151.42;1739040;82;21023;-81
2022/12/21 01:35:35;;;;;;;191.22;97.12;;;;;;;-0.90;100.00;98169.12;1738951;82;21016;-78
2022/12/21 01:38:02;;;;;;;183.87;95.40;;;;;;;-0.83;100.00;98167.29;1709790;82;22028;-81
2022/12/21 01:40:30;;;;;;;149.87;76.45;;;;;;;-0.76;100.00;98157.98;1739148;82;20999;-78
2022/12/21 01:42:56;;;;;;;164.88;85.62;;;;;;;-0.73;100.00;98144.27;1738982;82;21048;-80
2022/12/21 01:45:31;;;;;;;128.93;66.65;;;;;;;-0.78;100.00;98137.39;1738955;82;21596;-81
2022/12/21 01:47:59;;;;;;;124.22;59.70;;;;;;;-0.75;100.00;98131.68;1719427;82;21523;-78
2022/12/21 01:50:52;;;;;;;119.10;57.20;;;;;;;-0.68;100.00;98125.85;1700828;82;21068;-81
2022/12/21 01:53:29;;;;;;;119.82;57.15;;;;;;;-0.79;100.00;98119.28;1740799;81;21461;-80
2022/12/21 01:55:57;;;;;;;169.75;86.35;;;;;;;-0.69;100.00;98126.33;1746170;81;21037;-81
2022/12/21 01:58:26;;;;;;;168.32;87.85;;;;;;;-0.69;100.00;98137.49;1768770;81;20993;-78
2022/12/21 02:00:54;;;;;;;166.90;83.47;;;;;;;-0.71;100.00;98129.72;1768966;81;26510;-81
2022/12/21 02:03:22;;;;;;;152.93;80.50;;;;;;;-0.68;100.00;98125.85;1768682;81;20996;-81
2022/12/21 02:06:06;;;;;;;167.07;83.87;;;;;;;-0.66;100.00;98120.63;1746099;82;21008;-81
2022/12/21 02:08:33;;;;;;;150.22;81.78;;;;;;;-0.64;100.00;98129.21;1768456;81;21046;-78
2022/12/21 02:11:00;;;;;;;158.80;80.10;;;;;;;-0.65;100.00;98117.45;1745910;82;20997;-81
2022/12/21 02:13:27;;;;;;;143.68;73.05;;;;;;;-0.67;100.00;98122.16;1768512;81;21015;-80
2022/12/21 02:16:12;;;;;;;156.18;79.87;;;;;;;-0.58;100.00;98120.92;1752144;81;21474;-81
2022/12/21 02:19:15;;;;;;;136.15;75.22;;;;;;;-0.54;100.00;98117.33;1752058;81;21025;-81
2022/12/21 02:21:50;;;;;;;151.32;72.20;;;;;;;-0.53;100.00;98127.77;1751266;81;21110;-78
2022/12/21 02:24:55;;;;;;;129.20;63.73;;;;;;;-0.49;100.00;98123.68;1748029;81;21569;-82
2022/12/21 02:28:02;;;;;;;121.70;65.05;;;;;;;-0.39;100.00;98132.06;1752325;81;20998;-78
2022/12/21 02:31:00;;;;;;;118.50;61.28;;;;;;;-0.37;100.00;98120.69;1751586;81;21442;-81
2022/12/21 02:33:44;;;;;;;112.05;57.27;;;;;;;-0.27;100.00;98120.77;1752384;81;21509;-78
2022/12/21 02:36:45;;;;;;;119.53;59.77;;;;;;;-0.20;100.00;98113.08;1752034;81;21003;-78
2022/12/21 02:39:38;;;;;;;98.62;50.30;;;;;;;-0.14;100.00;98120.75;1751944;81;20966;-78
2022/12/21 02:45:19;;;;;;;107.22;57.65;;;;;;;-0.29;100.00;98099.67;1752260;81;21001;-78
2022/12/21 02:47:52;;;;;;;108.15;54.08;;;;;;;-0.27;100.00;98106.13;1752301;80;21069;-78
2022/12/21 02:50:24;;;;;;;98.58;51.40;;;;;;;-0.27;100.00;98090.96;1745605;81;21032;-77
2022/12/21 02:53:01;;;;;;;101.22;53.90;;;;;;;-0.28;100.00;98106.64;1750970;81;21033;-79
2022/12/21 02:55:28;;;;;;;90.07;46.37;;;;;;;-0.32;100.00;98105.43;1762856;81;21083;-78
2022/12/21 02:58:16;;;;;;;98.37;48.10;;;;;;;-0.40;100.00;98105.14;1745223;82;20993;-78
2022/12/21 03:01:07;;;;;;;86.50;41.88;;;;;;;-0.45;100.00;98108.10;1763036;81;21074;-79
2022/12/21 03:04:06;;;;;;;88.03;43.38;;;;;;;-0.58;100.00;98095.13;1744905;82;21048;-78
2022/12/21 03:06:55;;;;;;;92.72;49.98;;;;;;;-0.57;100.00;98077.31;1762924;81;21032;-81
2022/12/21 03:09:59;;;;;;;96.45;46.60;;;;;;;-0.54;100.00;98082.20;1762071;81;21449;-81
2022/12/21 03:12:51;;;;;;;88.75;39.05;;;;;;;-0.53;100.00;98080.36;1745063;82;21437;-81
2022/12/21 03:15:26;;;;;;;85.50;45.38;;;;;;;-0.61;100.00;98078.22;1763155;81;21500;-78
2022/12/21 03:18:00;;;;;;;83.67;44.53;;;;;;;-0.66;100.00;98080.70;1763662;81;21017;-79
2022/12/21 03:20:32;;;;;;;85.22;43.90;;;;;;;-0.67;100.00;98095.03;1764251;80;21007;-81
2022/12/21 03:23:10;;;;;;;80.20;41.25;;;;;;;-0.75;100.00;98101.08;1763549;81;21087;-81
2022/12/21 03:25:48;;;;;;;92.65;44.20;;;;;;;-0.92;100.00;98109.47;1764421;81;21023;-81
2022/12/21 03:28:19;;;;;;;75.92;38.42;;;;;;;-0.91;100.00;98100.97;1764612;81;21011;-78
2022/12/21 03:30:48;;;;;;;84.65;41.73;;;;;;;-0.89;100.00;98110.37;1764468;81;21666;-78
2022/12/21 03:33:18;;;;;;;84.80;42.00;;;;;;;-0.93;100.00;98107.02;1734785;81;21035;-81
2022/12/21 03:35:49;;;;;;;87.30;41.98;;;;;;;-1.04;100.00;98110.26;1764563;81;21035;-78
2022/12/21 03:38:27;;;;;;;80.07;40.12;;;;;;;-1.06;100.00;98107.81;1733869;81;21005;-81
2022/12/21 03:40:55;;;;;;;85.57;41.42;;;;;;;-1.08;100.00;98110.37;1764588;81;21471;-78
2022/12/21 03:43:26;;;;;;;79.80;41.80;;;;;;;-1.08;100.00;98101.06;1734732;81;21149;-80
2022/12/21 03:45:58;;;;;;;85.77;42.48;;;;;;;-1.14;100.00;98100.84;1764425;81;21390;-78
2022/12/21 03:48:38;;;;;;;90.60;43.00;;;;;;;-1.21;100.00;98103.18;1764621;81;21063;-78
2022/12/21 03:51:14;;;;;;;80.85;39.98;;;;;;;-1.25;100.00;98116.59;1764615;81;20987;-80
2022/12/21 03:54:11;;;;;;;89.95;40.65;;;;;;;-1.34;100.00;98116.47;1748429;81;21062;-78
2022/12/21 03:56:39;;;;;;;81.00;39.55;;;;;;;-1.34;100.00;98129.25;1734367;82;21028;-80
2022/12/21 03:59:06;;;;;;;77.05;37.78;;;;;;;-1.36;100.00;98133.95;1734196;82;21444;-78
2022/12/21 04:01:42;;;;;;;96.92;47.25;;;;;;;-1.45;100.00;98126.67;1734204;82;21027;-78
2022/12/21 04:04:41;;;;;;;93.58;46.35;;;;;;;-1.55;100.00;98126.72;1733400;82;21027;-80
2022/12/21 04:07:08;;;;;;;99.72;45.40;;;;;;;-1.49;100.00;98129.91;1734235;82;21027;-78
2022/12/21 04:09:35;;;;;;;94.83;48.58;;;;;;;-1.46;100.00;98125.52;1733877;82;21042;-77
2022/12/21 04:14:48;;;;;;;92.85;44.13;;;;;;;-1.52;100.00;98141.77;1724821;81;21046;-81
2022/12/21 04:17:15;;;;;;;102.00;44.35;;;;;;;-1.62;100.00;98148.45;1764702;81;21415;-80
2022/12/21 04:20:02;;;;;;;84.62;39.83;;;;;;;-1.61;100.00;98139.50;1764431;81;20980;-78
2022/12/21 04:28:08;;;;;;;97.60;49.73;;;;;;;-1.84;100.00;98132.65;1738960;81;21055;-80
2022/12/21 04:30:43;;;;;;;97.60;49.67;;;;;;;-1.82;100.00;98125.80;1764281;81;21063;-78
2022/12/21 04:33:13;;;;;;;95.75;45.12;;;;;;;-1.88;100.00;98112.83;1764494;81;21451;-78
2022/12/21 04:37:30;;;;;;;85.47;43.10;;;;;;;-1.93;100.00;98127.19;1764361;81;21029;-81
2022/12/21 04:38:09;;;;;;;85.05;40.25;;;;;;;-1.95;100.00;98122.59;1759543;81;21083;-78
2022/12/21 04:40:36;;;;;;;94.70;41.48;;;;;;;-1.92;100.00;98118.20;1764199;81;21067;-78
2022/12/21 04:43:03;;;;;;;89.40;43.70;;;;;;;-2.02;100.00;98112.44;1764439;81;21047;-78
2022/12/21 04:45:30;;;;;;;86.02;41.50;;;;;;;-2.08;100.00;98122.00;1764078;81;20994;-81
2022/12/21 04:47:57;;;;;;;93.30;45.83;;;;;;;-2.04;100.00;98131.23;1764369;81;22040;-81
2022/12/21 04:50:24;;;;;;;99.22;47.20;;;;;;;-2.00;100.00;98128.99;1764152;81;20976;-78
2022/12/21 04:52:50;;;;;;;99.77;48.48;;;;;;;-2.04;100.00;98135.22;1761715;81;21010;-79
2022/12/21 04:55:18;;;;;;;121.53;61.98;;;;;;;-2.14;100.00;98133.41;1752150;81;20978;-81
2022/12/21 04:57:44;;;;;;;110.95;49.38;;;;;;;-2.22;100.00;98132.73;1752631;81;21104;-81
2022/12/21 05:00:14;;;;;;;129.07;55.15;;;;;;;-2.25;100.00;98146.41;1752084;81;21753;-78
2022/12/21 05:02:41;;;;;;;117.80;54.70;;;;;;;-2.28;100.00;98146.30;1752323;81;21735;-80
2022/12/21 05:05:08;;;;;;;101.82;54.53;;;;;;;-2.33;100.00;98151.37;1752184;81;21017;-78
2022/12/21 05:07:35;;;;;;;123.72;61.50;;;;;;;-2.27;100.00;98158.56;1752213;81;20974;-81
2022/12/21 05:10:02;;;;;;;123.35;61.88;;;;;;;-2.30;100.00;98155.80;1752217;81;21061;-78
2022/12/21 05:12:29;;;;;;;124.45;59.88;;;;;;;-2.27;100.00;98149.27;1752345;81;21091;-78
2022/12/21 05:14:56;;;;;;;124.87;59.15;;;;;;;-2.27;100.00;98153.25;1741546;81;22076;-81
2022/12/21 05:17:23;;;;;;;119.47;56.08;;;;;;;-2.24;100.00;98151.52;1734097;82;21078;-80
2022/12/21 05:19:50;;;;;;;104.25;47.62;;;;;;;-2.28;100.00;98149.78;1733970;82;21118;-80
2022/12/21 05:22:17;;;;;;;104.25;52.65;;;;;;;-2.40;100.00;98153.15;1733970;82;21292;-77
2022/12/21 05:24:44;;;;;;;108.25;52.65;;;;;;;-2.43;100.00;98164.16;1733777;82;21010;-78
2022/12/21 05:27:12;;;;;;;113.57;53.40;;;;;;;-2.44;100.00;98161.20;1734057;82;21621;-78
2022/12/21 05:29:39;;;;;;;108.50;50.83;;;;;;;-2.48;100.00;98151.45;1733583;82;21477;-80
2022/12/21 05:32:05;;;;;;;111.20;51.73;;;;;;;-2.49;100.00;98149.82;1734113;82;21077;-80
2022/12/21 05:34:32;;;;;;;111.97;49.93;;;;;;;-2.64;100.00;98143.30;1733765;82;21019;-80
2022/12/21 05:36:59;;;;;;;111.70;56.40;;;;;;;-2.64;100.00;98138.00;1734254;82;21478;-80
2022/12/21 05:39:26;;;;;;;107.97;53.48;;;;;;;-2.69;100.00;98128.97;1733589;82;21022;-78
2022/12/21 05:41:54;;;;;;;115.42;57.25;;;;;;;-2.67;100.00;98122.95;1734057;82;21015;-82
2022/12/21 05:44:20;;;;;;;131.18;69.03;;;;;;;-2.65;100.00;98118.27;1733596;82;21014;-80
2022/12/21 05:46:47;;;;;;;133.60;71.10;;;;;;;-2.70;100.00;98124.67;1742746;81;21019;-78
2022/12/21 05:49:14;;;;;;;125.67;65.47;;;;;;;-2.68;100.00;98128.77;1753436;81;21004;-78
2022/12/21 05:51:41;;;;;;;123.55;61.95;;;;;;;-2.64;100.00;98139.84;1740518;81;21031;-77
2022/12/21 05:54:08;;;;;;;125.07;60.45;;;;;;;-2.67;100.00;98152.95;1753903;81;21066;-80
2022/12/21 05:56:36;;;;;;;120.97;57.98;;;;;;;-2.64;100.00;98144.63;1750767;81;21018;-78
2022/12/21 05:59:03;;;;;;;113.80;54.40;;;;;;;-2.59;100.00;98142.71;1763432;81;21027;-78
2022/12/21 06:01:30;;;;;;;118.62;59.18;;;;;;;-2.56;100.00;98139.19;1759498;81;21003;-80
2022/12/21 06:03:57;;;;;;;149.23;77.75;;;;;;;-2.58;100.00;98140.37;1734104;81;21012;-80
2022/12/21 06:06:24;;;;;;;125.75;66.82;;;;;;;-2.67;100.00;98153.46;1734059;82;21530;-80
2022/12/21 06:08:51;;;;;;;139.55;73.62;;;;;;;-2.63;100.00;98158.20;1733858;82;21047;-78
2022/12/21 06:11:27;;;;;;;153.45;76.17;;;;;;;-2.66;100.00;98161.73;1738393;81;21625;-78
2022/12/21 06:13:54;;;;;;;153.55;75.47;;;;;;;-2.70;100.00;98167.13;1733652;82;21078;-78
2022/12/21 06:16:23;;;;;;;163.57;85.12;;;;;;;-2.67;100.00;98173.36;1733926;82;21058;-78
2022/12/21 06:18:51;;;;;;;145.97;76.90;;;;;;;-2.72;100.00;98162.52;1733869;82;21078;-78
2022/12/21 06:21:19;;;;;;;143.85;75.80;;;;;;;-2.71;100.00;98167.62;1724820;81;37827;-80
2022/12/21 06:23:46;;;;;;;143.13;71.00;;;;;;;-2.72;100.00;98159.36;1764194;81;21042;-78
2022/12/21 06:26:15;;;;;;;140.35;74.17;;;;;;;-2.76;100.00;98145.33;1762806;81;21495;-78
2022/12/21 06:28:50;;;;;;;123.40;64.00;;;;;;;-2.78;100.00;98156.14;1752030;81;21000;-80
2022/12/21 06:31:18;;;;;;;146.25;71.12;;;;;;;-2.85;100.00;98147.30;1752136;81;21061;-78
2022/12/21 06:33:44;;;;;;;156.57;82.05;;;;;;;-2.94;100.00;98145.80;1752091;81;21060;-78
2022/12/21 06:36:11;;;;;;;120.20;61.20;;;;;;;-2.89;100.00;98153.50;1752103;81;20963;-78
2022/12/21 06:38:38;;;;;;;124.85;61.30;;;;;;;-2.84;100.00;98155.56;1752160;81;21005;-78
2022/12/21 06:41:11;;;;;;;127.07;58.83;;;;;;;-2.81;100.00;98153.88;1752136;81;20985;-77
2022/12/21 06:43:39;;;;;;;125.78;59.10;;;;;;;-2.80;100.00;98150.72;1723889;81;21020;-78
2022/12/21 06:46:09;;;;;;;128.85;66.42;;;;;;;-2.92;100.00;98135.81;1752128;81;21002;-80
2022/12/21 06:48:36;;;;;;;139.60;74.87;;;;;;;-2.92;100.00;98139.78;1759282;81;21104;-80
2022/12/21 06:51:06;;;;;;;113.97;60.73;;;;;;;-2.89;100.00;98134.94;1751562;81;21520;-77
2022/12/21 06:53:36;;;;;;;103.80;55.90;;;;;;;-2.93;100.00;98124.38;1757253;81;20961;-78
2022/12/21 06:56:12;;;;;;;121.72;59.98;;;;;;;-2.88;100.00;98117.20;1751528;81;21054;-78
2022/12/21 06:58:38;;;;;;;123.00;55.20;;;;;;;-2.85;100.00;98119.45;1751068;81;21009;-78
2022/12/21 07:01:13;;;;;;;103.78;55.35;;;;;;;-2.75;100.00;98129.22;1752535;80;21649;-80
2022/12/21 07:03:40;;;;;;;96.63;52.65;;;;;;;-2.65;100.00;98127.55;1765415;80;21070;-80
2022/12/21 07:06:08;;;;;;;110.08;51.85;;;;;;;-2.67;100.00;98141.52;1733947;80;21019;-78
2022/12/21 07:08:36;;;;;;;100.45;48.58;;;;;;;-2.64;100.00;98138.00;1731735;81;20985;-78
2022/12/21 07:11:06;;;;;;;114.52;56.68;;;;;;;-2.60;100.00;98115.36;1733408;81;21543;-80
2022/12/21 07:13:37;;;;;;;102.32;54.65;;;;;;;-2.57;100.00;98103.02;1745529;80;21095;-81
2022/12/21 07:16:05;;;;;;;107.25;56.68;;;;;;;-2.59;100.00;98099.75;1755839;81;21005;-80
2022/12/21 07:18:32;;;;;;;107.95;57.43;;;;;;;-2.52;100.00;98108.27;1745292;80;21061;-78
2022/12/21 07:21:02;;;;;;;125.65;65.28;;;;;;;-2.36;100.00;98114.61;1739670;80;21113;-80
2022/12/21 07:23:31;;;;;;;139.62;72.05;;;;;;;-2.24;100.00;98113.54;1741078;80;21590;-80
2022/12/21 07:25:58;;;;;;;138.07;68.67;;;;;;;-2.08;100.00;98111.89;1761380;80;20964;-78
2022/12/21 07:28:25;;;;;;;127.27;63.10;;;;;;;-1.90;100.00;98111.36;1756265;79;21493;-78
2022/12/21 07:30:55;;;;;;;118.15;61.80;;;;;;;-1.68;100.00;98102.27;1754307;80;21047;-78
2022/12/21 07:33:21;;;;;;;95.57;46.23;;;;;;;-1.39;100.00;98101.10;1726534;81;20979;-78
2022/12/21 07:35:48;;;;;;;227.00;99.52;;;;;;;-1.08;100.00;98103.20;1747182;81;21459;-82
2022/12/21 07:38:15;;;;;;;187.72;92.08;;;;;;;-0.78;100.00;98108.12;1741521;81;21173;-80
2022/12/21 07:40:42;;;;;;;185.52;92.47;;;;;;;-0.42;100.00;98106.38;1752507;81;21654;-81
2022/12/21 07:43:10;;;;;;;101.12;55.12;;;;;;;-0.13;100.00;98105.89;1746741;81;21105;-78
2022/12/21 07:45:37;;;;;;;73.62;33.80;;;;;;;0.17;100.00;98100.04;1747853;81;21114;-81
2022/12/21 07:48:05;;;;;;;39.40;17.50;;;;;;;0.44;100.00;98098.92;1751678;81;21011;-81
2022/12/21 07:50:32;;;;;;;71.40;33.65;;;;;;;0.72;100.00;98095.88;1748134;81;21047;-78
2022/12/21 07:52:59;;;;;;;53.70;27.62;;;;;;;0.97;100.00;98088.44;1738752;81;21039;-78
2022/12/21 07:55:25;;;;;;;77.53;37.65;;;;;;;1.18;100.00;98096.58;1747199;81;21055;-79
2022/12/21 07:57:52;;;;;;;47.27;26.45;;;;;;;1.38;100.00;98096.73;1747605;81;21548;-81
2022/12/21 08:00:22;;;;;;;31.23;18.27;;;;;;;1.57;100.00;98083.41;1744131;81;21050;-81
2022/12/21 08:02:52;;;;;;;34.08;18.90;;;;;;;1.71;100.00;98090.27;1743207;81;21035;-81
2022/12/21 08:05:19;;;;;;;29.57;16.27;;;;;;;1.90;100.00;98082.56;1744279;81;21518;-78
2022/12/21 08:07:47;;;;;;;45.58;23.12;;;;;;;2.00;100.00;98084.70;1746530;79;21094;-78
2022/12/21 08:10:14;;;;;;;45.52;23.98;;;;;;;2.09;100.00;98080.69;1739246;81;21404;-81
2022/12/21 08:12:41;;;;;;;28.25;12.65;;;;;;;2.17;100.00;98085.73;1745755;81;21100;-82
2022/12/21 08:15:09;;;;;;;52.15;24.25;;;;;;;2.31;100.00;98074.38;1739341;81;21109;-78
2022/12/21 08:17:35;;;;;;;25.80;13.10;;;;;;;2.41;100.00;98072.50;1733889;81;21132;-81
2022/12/21 08:20:03;;;;;;;26.45;14.73;;;;;;;2.47;100.00;98068.38;1747595;81;21022;-78
2022/12/21 08:22:30;;;;;;;42.23;19.80;;;;;;;2.56;100.00;98056.83;1741084;81;21054;-81
2022/12/21 08:24:57;;;;;;;26.52;15.15;;;;;;;2.57;100.00;98065.70;1748600;81;20996;-81
2022/12/21 08:27:24;;;;;;;36.35;18.92;;;;;;;2.60;100.00;98065.23;1745349;81;21542;-78
2022/12/21 08:29:51;;;;;;;43.90;24.32;;;;;;;2.67;100.00;98078.82;1756215;81;21122;-78
2022/12/21 08:32:18;;;;;;;59.25;32.73;;;;;;;2.72;100.00;98072.25;1748750;81;21040;-78
2022/12/21 08:34:45;;;;;;;72.00;38.38;;;;;;;2.75;100.00;98070.47;1738858;80;21461;-81
2022/12/21 08:37:12;;;;;;;59.38;29.65;;;;;;;2.75;100.00;98062.45;1750886;81;21107;-78
2022/12/21 08:39:39;;;;;;;74.60;33.50;;;;;;;2.63;100.00;98035.34;1773903;79;21019;-81
2022/12/21 08:42:06;;;;;;;83.45;40.20;;;;;;;2.58;100.00;98037.38;1744087;81;21099;-78
2022/12/21 08:44:33;;;;;;;74.22;38.67;;;;;;;2.65;100.00;98048.80;1729572;81;21519;-81
2022/12/21 08:47:00;;;;;;;60.92;32.33;;;;;;;2.67;100.00;98044.56;1731010;80;20996;-78
2022/12/21 08:49:26;;;;;;;60.78;31.10;;;;;;;2.65;100.00;98043.45;1748833;81;21106;-81
2022/12/21 08:51:53;;;;;;;49.63;27.70;;;;;;;2.68;100.00;98042.17;1739170;80;21011;-81
2022/12/21 08:54:20;;;;;;;59.58;32.40;;;;;;;2.70;100.00;98047.58;1738517;81;21594;-81
2022/12/21 08:56:47;;;;;;;65.97;35.75;;;;;;;2.78;100.00;98040.56;1742371;81;21266;-78
2022/12/21 08:59:14;;;;;;;278.25;114.60;;;;;;;2.79;100.00;98036.84;1750395;80;21137;-78
2022/12/21 09:01:41;;;;;;;85.75;43.73;;;;;;;2.80;100.00;98057.73;1700753;82;21042;-82
2022/12/21 09:04:08;;;;;;;75.28;40.28;;;;;;;2.89;100.00;98057.69;1753849;81;21062;-78
2022/12/21 09:06:34;;;;;;;86.10;48.70;;;;;;;2.86;100.00;98044.78;1748873;81;21074;-81
2022/12/21 09:09:01;;;;;;;88.22;53.90;;;;;;;2.78;100.00;98058.48;1741954;81;23420;-78
2022/12/21 09:11:29;;;;;;;85.40;48.45;;;;;;;2.81;100.00;98041.96;1741579;80;20980;-82
2022/12/21 09:13:56;;;;;;;73.30;42.53;;;;;;;2.81;100.00;98036.61;1739915;80;21039;-79
2022/12/21 09:16:23;;;;;;;68.50;38.05;;;;;;;2.73;100.00;98043.63;1720622;81;20960;-78
2022/12/21 09:18:50;;;;;;;112.42;63.83;;;;;;;2.60;100.00;98031.80;1721459;80;21086;-81
2022/12/21 09:21:19;;;;;;;86.70;46.00;;;;;;;2.54;100.00;98032.17;1740231;80;21004;-81
2022/12/21 09:23:46;;;;;;;81.53;44.80;;;;;;;2.60;100.00;98037.14;1738499;80;21073;-81
2022/12/21 09:26:14;;;;;;;72.87;38.48;;;;;;;2.59;100.00;98035.52;1738457;80;20952;-78
2022/12/21 09:28:40;;;;;;;60.17;32.53;;;;;;;2.58;100.00;98033.36;1741653;80;21048;-81
2022/12/21 09:31:17;;;;;;;59.10;36.60;;;;;;;2.63;100.00;98031.33;1739250;80;21673;-81
2022/12/21 09:33:44;;;;;;;52.75;35.98;;;;;;;2.66;100.00;98034.37;1738518;80;21023;-81
2022/12/21 09:36:12;;;;;;;82.47;45.05;;;;;;;2.78;100.00;98037.89;1735134;81;21055;-82
2022/12/21 09:38:39;;;;;;;123.97;65.75;;;;;;;2.81;100.00;98032.07;1748485;80;20984;-81
2022/12/21 09:41:14;;;;;;;113.50;57.60;;;;;;;2.85;100.00;98036.45;1745199;81;21637;-78
2022/12/21 09:44:12;;;;;;;61.73;34.30;;;;;;;2.94;100.00;98036.94;1779991;80;21129;-81
2022/12/21 09:46:41;;;;;;;62.33;33.92;;;;;;;3.06;100.00;98035.90;1738879;81;20984;-82
2022/12/21 09:49:16;;;;;;;56.55;32.63;;;;;;;3.26;100.00;98032.09;1745960;80;20995;-82
2022/12/21 09:51:52;;;;;;;37.78;19.73;;;;;;;3.40;100.00;98027.59;1741113;81;21015;-78
2022/12/21 09:54:23;;;;;;;26.55;15.25;;;;;;;3.50;100.00;98027.00;1738681;81;21515;-79
2022/12/21 09:56:51;;;;;;;29.40;16.70;;;;;;;3.64;100.00;98030.27;1741312;81;21933;-82
2022/12/21 09:59:20;;;;;;;30.43;15.15;;;;;;;3.76;100.00;98016.34;1751998;81;22097;-78
2022/12/21 10:02:16;;;;;;;25.08;14.55;;;;;;;3.87;100.00;98016.84;1755322;80;21082;-82
2022/12/21 10:05:19;;;;;;;41.15;22.40;;;;;;;3.94;100.00;98020.73;1694705;80;21047;-82
2022/12/21 10:08:31;;;;;;;45.00;23.00;;;;;;;3.97;100.00;98022.93;1740289;80;21499;-82
2022/12/21 10:11:03;;;;;;;36.42;23.73;;;;;;;3.93;100.00;98015.90;1750055;80;21555;-82
2022/12/21 10:13:39;;;;;;;29.50;15.48;;;;;;;3.93;100.00;98005.67;1745430;80;21298;-82
2022/12/21 10:16:35;;;;;;;51.70;24.02;;;;;;;3.92;100.00;98002.18;1730953;81;20993;-82
2022/12/21 10:19:32;;;;;;;30.48;16.37;;;;;;;3.72;100.00;98004.98;1759754;80;21282;-78
2022/12/21 10:22:26;;;;;;;37.42;19.42;;;;;;;3.70;100.00;98005.22;1765888;80;21001;-78
2022/12/21 10:24:56;;;;;;;47.65;27.65;;;;;;;3.78;100.00;98008.06;1729954;81;21055;-81
2022/12/21 10:27:39;;;;;;;50.60;28.12;;;;;;;3.81;100.00;98007.05;1749709;81;21067;-82
2022/12/21 10:30:14;;;;;;;35.00;18.70;;;;;;;3.80;100.00;98010.78;1760799;80;21040;-82
2022/12/21 10:32:42;;;;;;;38.00;20.92;;;;;;;3.84;100.00;98012.45;1785292;80;21003;-82
2022/12/21 10:35:31;;;;;;;33.00;17.65;;;;;;;3.87;100.00;98009.33;1721866;81;21086;-81
2022/12/21 10:37:58;;;;;;;30.12;17.77;;;;;;;3.88;100.00;98005.06;1732971;81;21902;-78
2022/12/21 10:40:27;;;;;;;35.35;19.62;;;;;;;3.87;100.00;98002.62;1716390;81;21500;-82
2022/12/21 10:42:54;;;;;;;50.65;22.00;;;;;;;3.85;100.00;97998.84;1757404;80;21030;-82
2022/12/21 10:45:23;;;;;;;40.00;17.27;;;;;;;3.80;100.00;97995.23;1767360;80;21047;-82
2022/12/21 10:47:50;;;;;;;43.13;23.42;;;;;;;3.80;100.00;98008.11;1771334;80;21600;-81
2022/12/21 10:50:27;;;;;;;39.58;24.52;;;;;;;3.86;100.00;98017.08;1732820;80;21028;-78
2022/12/21 10:52:55;;;;;;;43.42;24.07;;;;;;;3.91;100.00;98017.16;1739303;80;21013;-82
2022/12/21 10:55:32;;;;;;;59.55;35.15;;;;;;;3.96;100.00;98019.97;1743133;80;21532;-82
2022/12/21 10:58:12;;;;;;;55.38;28.38;;;;;;;3.90;100.00;98018.22;1752689;80;21395;-82
2022/12/21 11:00:40;;;;;;;65.75;37.98;;;;;;;3.93;100.00;98022.61;1753805;79;21381;-82
2022/12/21 11:03:29;;;;;;;73.85;38.78;;;;;;;3.93;100.00;98025.78;1746931;80;21060;-82
2022/12/21 11:05:56;;;;;;;68.05;37.63;;;;;;;3.98;100.00;98021.88;1762696;80;21614;-82
2022/12/21 11:08:29;;;;;;;67.35;36.03;;;;;;;3.95;100.00;98010.30;1741200;80;21371;-82
2022/12/21 11:10:58;;;;;;;61.23;34.53;;;;;;;4.02;100.00;97996.77;1741612;80;21098;-78
2022/12/21 11:13:28;;;;;;;80.17;39.63;;;;;;;4.02;100.00;97995.42;1764080;80;21071;-78
2022/12/21 11:16:02;;;;;;;64.15;34.60;;;;;;;3.99;100.00;97995.34;1757495;80;21669;-78
2022/12/21 11:18:45;;;;;;;57.35;32.20;;;;;;;4.03;100.00;97999.20;1757029;80;21117;-82
2022/12/21 11:21:49;;;;;;;65.47;37.53;;;;;;;4.11;100.00;97982.73;1755127;81;21399;-78
2022/12/21 11:24:30;;;;;;;93.70;60.63;;;;;;;4.19;100.00;97973.50;1756418;80;21466;-82
2022/12/21 11:27:03;;;;;;;45.50;29.48;;;;;;;4.15;100.00;97967.78;1742766;81;21153;-82
2022/12/21 11:29:33;;;;;;;52.53;33.35;;;;;;;4.27;100.00;97966.91;1752024;81;21607;-82
2022/12/21 11:32:05;;;;;;;43.87;25.52;;;;;;;4.40;100.00;97966.09;1741212;81;21060;-78
2022/12/21 11:34:44;;;;;;;53.87;37.30;;;;;;;4.50;100.00;97953.38;1732306;80;21095;-82
2022/12/21 11:37:40;;;;;;;52.88;29.63;;;;;;;4.56;100.00;97956.98;1744652;80;21043;-82
2022/12/21 11:40:15;;;;;;;229.30;74.87;;;;;;;4.65;100.00;97956.33;1755917;81;21035;-82